createdAt,value
2017-12-31T00:01:59.479Z,14.25
2017-12-31T00:04:31.187Z,14.00
2017-12-31T00:07:02.235Z,15.25
2017-12-31T00:09:33.932Z,9.75
2017-12-31T00:12:04.711Z,14.75
2017-12-31T00:14:35.320Z,15.25
2017-12-31T00:17:07.310Z,13.75
2017-12-31T00:19:37.860Z,10.25
2017-12-31T00:22:08.924Z,9.00
2017-12-31T00:24:40.080Z,10.00
2017-12-31T00:27:11.278Z,14.25
2017-12-31T00:29:43.088Z,10.50
2017-12-31T00:32:14.870Z,9.00
2017-12-31T00:34:46.246Z,8.50
2017-12-31T00:37:17.434Z,11.75
2017-12-31T00:39:50.379Z,7.75
2017-12-31T00:42:49.452Z,9.25
2017-12-31T00:45:20.335Z,7.75
2017-12-31T00:50:22.571Z,7.25
2017-12-31T00:53:00.331Z,9.75
2017-12-31T00:55:34.408Z,9.00
2017-12-31T00:58:05.542Z,7.75
2017-12-31T01:00:36.274Z,11.50
2017-12-31T01:03:07.178Z,9.75
2017-12-31T01:05:40.732Z,10.50
2017-12-31T01:08:11.161Z,6.00
2017-12-31T01:10:45.410Z,6.00
2017-12-31T01:13:15.907Z,8.25
2017-12-31T01:15:47.379Z,6.00
2017-12-31T01:18:18.196Z,7.75
2017-12-31T01:20:49.346Z,5.75
2017-12-31T01:23:19.986Z,6.50
2017-12-31T01:25:51.880Z,6.00
2017-12-31T01:28:23.940Z,9.50
2017-12-31T01:30:59.942Z,14.00
2017-12-31T01:33:31.026Z,10.00
2017-12-31T01:36:01.518Z,6.00
2017-12-31T01:38:32.535Z,5.00
2017-12-31T01:41:03.260Z,7.00
2017-12-31T01:43:35.410Z,6.50
2017-12-31T01:46:06.651Z,5.00
2017-12-31T01:48:42.487Z,4.75
2017-12-31T01:51:13.378Z,4.75
2017-12-31T01:53:43.929Z,4.25
2017-12-31T01:56:14.317Z,4.75
2017-12-31T01:58:45.647Z,4.00
2017-12-31T02:01:16.332Z,4.00
2017-12-31T02:03:47.261Z,4.75
2017-12-31T02:06:18.128Z,4.00
2017-12-31T02:08:48.591Z,4.00
2017-12-31T02:11:19.013Z,4.00
2017-12-31T02:13:50.592Z,4.00
2017-12-31T02:16:21.652Z,4.00
2017-12-31T02:18:52.340Z,4.00
2017-12-31T02:21:22.711Z,5.00
2017-12-31T02:23:53.190Z,7.00
2017-12-31T02:26:23.849Z,5.00
2017-12-31T02:28:54.371Z,6.75
2017-12-31T02:31:26.563Z,6.00
2017-12-31T02:33:57.479Z,8.00
2017-12-31T02:36:28.934Z,6.75
2017-12-31T02:38:59.905Z,11.00
2017-12-31T02:41:30.813Z,9.00
2017-12-31T02:44:01.699Z,7.25
2017-12-31T02:46:35.524Z,8.00
2017-12-31T02:49:06.204Z,6.50
2017-12-31T02:51:36.657Z,6.50
2017-12-31T02:54:07.083Z,4.25
2017-12-31T02:56:38.401Z,5.00
2017-12-31T02:59:09.884Z,5.00
2017-12-31T03:01:41.167Z,7.00
2017-12-31T03:04:11.889Z,5.00
2017-12-31T03:06:42.430Z,5.00
2017-12-31T03:09:12.965Z,5.50
2017-12-31T03:11:43.867Z,5.25
2017-12-31T03:14:14.740Z,5.25
2017-12-31T03:16:45.711Z,4.00
2017-12-31T03:19:16.435Z,5.00
2017-12-31T03:21:48.748Z,5.00
2017-12-31T03:24:20.039Z,4.00
2017-12-31T03:27:00.765Z,5.00
2017-12-31T03:29:33.097Z,4.00
2017-12-31T03:32:06.239Z,5.00
2017-12-31T03:34:36.644Z,5.00
2017-12-31T03:37:07.058Z,5.00
2017-12-31T03:39:37.711Z,7.25
2017-12-31T03:42:08.632Z,8.25
2017-12-31T03:44:39.025Z,6.75
2017-12-31T03:47:09.786Z,8.75
2017-12-31T03:49:40.467Z,7.50
2017-12-31T03:52:11.154Z,7.25
2017-12-31T03:54:42.047Z,7.75
2017-12-31T03:57:12.592Z,8.00
2017-12-31T03:59:43.070Z,5.00
2017-12-31T04:02:13.792Z,7.50
2017-12-31T04:04:44.432Z,6.75
2017-12-31T04:07:15.360Z,7.75
2017-12-31T04:09:45.765Z,6.75
2017-12-31T04:12:16.717Z,5.00
2017-12-31T04:14:49.392Z,7.00
2017-12-31T04:17:20.025Z,5.50
2017-12-31T04:19:50.384Z,8.00
2017-12-31T04:22:21.025Z,6.75
2017-12-31T04:25:00.271Z,7.75
2017-12-31T04:27:31.321Z,7.00
2017-12-31T04:30:04.819Z,6.00
2017-12-31T04:32:36.706Z,7.25
2017-12-31T04:35:07.339Z,5.25
2017-12-31T04:37:37.862Z,9.50
2017-12-31T04:40:08.182Z,12.00
2017-12-31T04:42:39.145Z,6.00
2017-12-31T04:45:09.420Z,7.00
2017-12-31T04:47:48.134Z,8.00
2017-12-31T04:50:18.574Z,7.25
2017-12-31T04:52:48.993Z,6.75
2017-12-31T04:55:20.115Z,9.25
2017-12-31T04:57:50.653Z,8.00
2017-12-31T05:00:24.552Z,9.50
2017-12-31T05:02:55.916Z,6.25
2017-12-31T05:05:26.952Z,6.00
2017-12-31T05:07:57.638Z,7.25
2017-12-31T05:10:29.484Z,7.50
2017-12-31T05:12:59.894Z,8.00
2017-12-31T05:15:31.828Z,8.50
2017-12-31T05:18:02.766Z,8.00
2017-12-31T05:20:36.236Z,6.00
2017-12-31T05:23:07.830Z,5.00
2017-12-31T05:25:38.273Z,6.00
2017-12-31T05:28:08.993Z,6.25
2017-12-31T05:30:39.782Z,6.00
2017-12-31T05:33:10.474Z,4.25
2017-12-31T05:35:40.982Z,9.25
2017-12-31T05:38:11.619Z,5.00
2017-12-31T05:40:43.500Z,5.00
2017-12-31T05:43:13.963Z,7.50
2017-12-31T05:45:44.933Z,7.50
2017-12-31T05:48:16.544Z,9.25
2017-12-31T05:50:47.117Z,6.50
2017-12-31T05:53:18.016Z,6.00
2017-12-31T05:55:48.800Z,4.25
2017-12-31T05:58:19.275Z,5.00
2017-12-31T06:00:51.450Z,5.00
2017-12-31T06:03:22.310Z,4.75
2017-12-31T06:05:52.864Z,5.25
2017-12-31T06:08:23.673Z,5.75
2017-12-31T06:10:54.265Z,6.25
2017-12-31T06:13:25.171Z,5.00
2017-12-31T06:15:57.139Z,5.75
2017-12-31T06:18:27.451Z,5.00
2017-12-31T06:20:59.582Z,7.00
2017-12-31T06:23:31.311Z,5.50
2017-12-31T06:26:01.816Z,5.00
2017-12-31T06:28:32.382Z,5.00
2017-12-31T06:31:03.057Z,5.25
2017-12-31T06:33:34.088Z,5.75
2017-12-31T06:36:04.945Z,4.50
2017-12-31T06:38:36.496Z,6.00
2017-12-31T06:41:07.012Z,4.25
2017-12-31T06:43:37.365Z,5.50
2017-12-31T06:46:08.910Z,3.75
2017-12-31T06:48:39.716Z,5.25
2017-12-31T06:51:11.110Z,5.00
2017-12-31T06:53:42.154Z,5.00
2017-12-31T06:56:13.052Z,5.50
2017-12-31T06:58:44.128Z,5.00
2017-12-31T07:01:14.775Z,3.00
2017-12-31T07:03:49.701Z,5.25
2017-12-31T07:06:20.192Z,2.25
2017-12-31T07:08:51.997Z,3.00
2017-12-31T07:11:22.449Z,5.25
2017-12-31T07:13:53.381Z,5.00
2017-12-31T07:16:23.746Z,3.25
2017-12-31T07:18:54.156Z,5.25
2017-12-31T07:21:24.638Z,4.50
2017-12-31T07:23:55.646Z,5.00
2017-12-31T07:26:26.110Z,5.00
2017-12-31T07:28:56.906Z,4.25
2017-12-31T07:31:27.949Z,3.00
2017-12-31T07:33:59.333Z,5.25
2017-12-31T07:36:40.942Z,3.00
2017-12-31T07:39:11.470Z,5.00
2017-12-31T07:41:43.095Z,4.25
2017-12-31T07:44:13.947Z,5.00
2017-12-31T07:46:44.388Z,2.50
2017-12-31T07:49:15.478Z,5.25
2017-12-31T07:51:46.992Z,3.00
2017-12-31T07:54:17.571Z,3.00
2017-12-31T07:56:49.166Z,4.25
2017-12-31T07:59:19.808Z,2.25
2017-12-31T08:01:51.339Z,2.50
2017-12-31T08:04:21.809Z,2.00
2017-12-31T08:06:52.276Z,2.00
2017-12-31T08:09:23.107Z,2.00
2017-12-31T08:11:53.796Z,2.00
2017-12-31T08:14:34.493Z,4.00
2017-12-31T08:17:06.368Z,3.00
2017-12-31T08:19:37.599Z,2.50
2017-12-31T08:22:08.082Z,2.00
2017-12-31T08:24:38.409Z,2.25
2017-12-31T08:27:08.913Z,3.00
2017-12-31T08:29:39.626Z,2.75
2017-12-31T08:32:10.402Z,3.00
2017-12-31T08:34:41.032Z,3.00
2017-12-31T08:37:12.302Z,4.25
2017-12-31T08:39:42.785Z,5.50
2017-12-31T08:42:13.229Z,3.25
2017-12-31T08:44:44.319Z,3.00
2017-12-31T08:47:15.155Z,2.75
2017-12-31T08:49:46.385Z,2.75
2017-12-31T08:52:17.341Z,3.75
2017-12-31T08:54:49.378Z,3.00
2017-12-31T08:57:28.080Z,5.00
2017-12-31T08:59:58.494Z,3.75
2017-12-31T09:02:29.742Z,3.75
2017-12-31T09:05:00.654Z,5.00
2017-12-31T09:07:32.028Z,3.00
2017-12-31T09:10:02.577Z,3.00
2017-12-31T09:12:33.246Z,5.00
2017-12-31T09:15:06.545Z,3.00
2017-12-31T09:17:37.213Z,3.00
2017-12-31T09:20:07.912Z,3.25
2017-12-31T09:22:38.811Z,5.00
2017-12-31T09:25:09.583Z,5.00
2017-12-31T09:27:39.928Z,2.50
2017-12-31T09:30:14.961Z,5.00
2017-12-31T09:32:46.571Z,5.00
2017-12-31T09:35:17.367Z,3.00
2017-12-31T09:37:49.580Z,3.25
2017-12-31T09:40:23.102Z,5.00
2017-12-31T09:42:54.034Z,3.00
2017-12-31T09:45:25.204Z,2.25
2017-12-31T09:47:55.988Z,3.00
2017-12-31T09:50:26.508Z,3.00
2017-12-31T09:52:57.734Z,2.25
2017-12-31T09:55:29.055Z,2.75
2017-12-31T09:57:59.930Z,5.00
2017-12-31T10:00:31.645Z,3.50
2017-12-31T10:03:02.959Z,2.75
2017-12-31T10:05:33.922Z,2.00
2017-12-31T10:08:04.535Z,3.00
2017-12-31T10:10:35.064Z,5.25
2017-12-31T10:13:05.884Z,4.00
2017-12-31T10:15:36.851Z,2.00
2017-12-31T10:18:08.300Z,3.00
2017-12-31T10:20:39.022Z,4.00
2017-12-31T10:23:10.519Z,3.00
2017-12-31T10:25:42.018Z,2.75
2017-12-31T10:28:12.888Z,3.50
2017-12-31T10:30:44.855Z,3.00
2017-12-31T10:33:16.335Z,5.00
2017-12-31T10:35:48.105Z,7.00
2017-12-31T10:38:38.621Z,5.00
2017-12-31T10:41:09.885Z,3.00
2017-12-31T10:43:40.592Z,2.00
2017-12-31T10:46:12.885Z,3.00
2017-12-31T10:48:43.700Z,4.00
2017-12-31T10:51:14.223Z,3.00
2017-12-31T10:53:46.596Z,3.00
2017-12-31T10:56:24.450Z,3.00
2017-12-31T10:58:56.075Z,3.00
2017-12-31T11:01:27.204Z,5.00
2017-12-31T11:03:58.563Z,3.00
2017-12-31T11:06:30.775Z,4.00
2017-12-31T11:09:02.452Z,2.75
2017-12-31T11:11:35.314Z,3.00
2017-12-31T11:14:06.666Z,3.50
2017-12-31T11:16:39.629Z,2.00
2017-12-31T11:19:10.353Z,2.50
2017-12-31T11:21:41.253Z,2.00
2017-12-31T11:24:14.675Z,3.00
2017-12-31T11:26:46.629Z,3.00
2017-12-31T11:29:38.849Z,5.75
2017-12-31T11:32:10.370Z,3.00
2017-12-31T11:34:41.280Z,4.75
2017-12-31T11:37:12.211Z,3.00
2017-12-31T11:39:42.796Z,8.00
2017-12-31T11:42:13.794Z,5.75
2017-12-31T11:44:44.351Z,6.00
2017-12-31T11:47:15.213Z,4.75
2017-12-31T11:49:46.117Z,4.75
2017-12-31T11:52:16.975Z,3.25
2017-12-31T11:54:48.829Z,3.00
2017-12-31T11:57:20.401Z,4.50
2017-12-31T11:59:52.116Z,4.75
2017-12-31T12:02:23.456Z,6.00
2017-12-31T12:04:55.298Z,3.00
2017-12-31T12:07:27.265Z,3.00
2017-12-31T12:09:57.655Z,4.00
2017-12-31T12:12:28.226Z,3.75
2017-12-31T12:14:59.457Z,3.00
2017-12-31T12:17:30.404Z,3.50
2017-12-31T12:20:04.355Z,7.50
2017-12-31T12:22:36.673Z,3.25
2017-12-31T12:25:12.855Z,3.00
2017-12-31T12:27:50.458Z,3.75
2017-12-31T12:30:22.357Z,4.75
2017-12-31T12:32:53.810Z,3.00
2017-12-31T12:35:30.933Z,2.50
2017-12-31T12:38:02.551Z,5.50
2017-12-31T12:40:34.647Z,4.75
2017-12-31T12:43:06.160Z,5.75
2017-12-31T12:45:37.205Z,7.75
2017-12-31T12:48:07.899Z,4.75
2017-12-31T12:50:38.430Z,4.25
2017-12-31T12:53:09.087Z,5.75
2017-12-31T12:55:41.000Z,5.00
2017-12-31T12:58:11.575Z,5.00
2017-12-31T13:00:42.295Z,5.75
2017-12-31T13:03:14.648Z,3.00
2017-12-31T13:05:45.403Z,3.25
2017-12-31T13:08:16.606Z,3.00
2017-12-31T13:10:48.054Z,2.75
2017-12-31T13:13:18.779Z,4.75
2017-12-31T13:15:50.207Z,7.00
2017-12-31T13:18:21.458Z,9.25
2017-12-31T13:20:53.026Z,6.75
2017-12-31T13:23:23.775Z,12.00
2017-12-31T13:25:54.453Z,4.00
2017-12-31T13:28:30.629Z,6.00
2017-12-31T13:31:03.454Z,3.00
2017-12-31T13:36:08.596Z,5.00
2017-12-31T13:38:39.150Z,3.00
2017-12-31T13:41:16.600Z,3.25
2017-12-31T13:43:52.779Z,4.75
2017-12-31T13:46:23.774Z,3.00
2017-12-31T13:48:54.825Z,6.00
2017-12-31T13:51:25.728Z,3.25
2017-12-31T13:53:58.160Z,5.75
2017-12-31T13:59:07.960Z,3.00
2017-12-31T14:01:39.571Z,7.00
2017-12-31T14:04:10.628Z,2.50
2017-12-31T14:06:41.510Z,4.50
2017-12-31T14:09:12.506Z,4.00
2017-12-31T14:11:45.065Z,6.00
2017-12-31T14:14:22.456Z,4.75
2017-12-31T14:16:57.919Z,7.00
2017-12-31T14:19:33.992Z,3.00
2017-12-31T14:22:16.246Z,2.75
2017-12-31T14:24:53.611Z,3.00
2017-12-31T14:27:25.078Z,3.50
2017-12-31T14:29:55.740Z,3.25
2017-12-31T14:32:27.086Z,8.75
2017-12-31T14:34:58.240Z,4.50
2017-12-31T14:37:29.564Z,7.00
2017-12-31T14:42:42.230Z,3.00
2017-12-31T14:45:24.661Z,3.50
2017-12-31T14:47:56.274Z,3.00
2017-12-31T14:50:28.048Z,4.00
2017-12-31T14:53:01.472Z,4.75
2017-12-31T14:55:40.640Z,3.25
2017-12-31T14:58:14.639Z,3.50
2017-12-31T15:00:46.262Z,2.75
2017-12-31T15:03:19.306Z,5.50
2017-12-31T15:05:52.081Z,6.00
2017-12-31T15:08:22.998Z,4.75
2017-12-31T15:10:53.625Z,3.00
2017-12-31T15:13:26.984Z,7.00
2017-12-31T15:16:07.187Z,2.50
2017-12-31T15:18:39.238Z,3.25
2017-12-31T15:21:11.783Z,3.00
2017-12-31T15:23:43.423Z,4.00
2017-12-31T15:26:15.388Z,4.75
2017-12-31T15:28:47.513Z,4.75
2017-12-31T15:31:24.908Z,5.25
2017-12-31T15:33:55.539Z,7.00
2017-12-31T15:36:26.945Z,3.00
2017-12-31T15:38:57.660Z,3.00
2017-12-31T15:41:28.828Z,4.75
2017-12-31T15:43:59.614Z,3.00
2017-12-31T15:46:31.689Z,4.50
2017-12-31T15:49:02.648Z,3.00
2017-12-31T15:51:34.848Z,4.00
2017-12-31T15:54:05.350Z,5.50
2017-12-31T15:56:36.569Z,3.00
2017-12-31T15:59:14.984Z,3.00
2017-12-31T16:01:46.495Z,4.50
2017-12-31T16:04:17.573Z,4.00
2017-12-31T16:06:49.175Z,4.75
2017-12-31T16:09:20.249Z,8.00
2017-12-31T16:12:02.983Z,3.25
2017-12-31T16:14:34.598Z,4.00
2017-12-31T16:17:05.836Z,3.50
2017-12-31T16:19:36.496Z,4.75
2017-12-31T16:22:07.942Z,2.50
2017-12-31T16:27:21.535Z,7.00
2017-12-31T16:29:52.329Z,3.00
2017-12-31T16:32:24.700Z,3.00
2017-12-31T16:34:57.800Z,7.00
2017-12-31T16:37:29.115Z,4.50
2017-12-31T16:40:01.555Z,4.50
2017-12-31T16:42:32.157Z,3.00
2017-12-31T16:45:04.868Z,4.50
2017-12-31T16:47:38.171Z,7.50
2017-12-31T16:50:09.348Z,7.00
2017-12-31T16:52:40.541Z,5.25
2017-12-31T16:55:11.441Z,5.75
2017-12-31T16:57:42.433Z,4.75
2017-12-31T17:00:28.706Z,4.75
2017-12-31T17:03:00.943Z,3.00
2017-12-31T17:05:32.412Z,5.75
2017-12-31T17:08:05.141Z,7.00
2017-12-31T17:10:38.644Z,6.00
2017-12-31T17:13:10.321Z,7.00
2017-12-31T17:15:41.690Z,8.00
2017-12-31T17:18:12.355Z,5.00
2017-12-31T17:20:43.256Z,5.50
2017-12-31T17:23:14.541Z,4.50
2017-12-31T17:25:45.194Z,5.50
2017-12-31T17:28:16.657Z,6.25
2017-12-31T17:30:48.286Z,6.00
2017-12-31T17:33:18.667Z,6.00
2017-12-31T17:35:50.265Z,6.75
2017-12-31T17:38:21.319Z,5.50
2017-12-31T17:40:52.841Z,6.00
2017-12-31T17:43:27.642Z,6.00
2017-12-31T17:45:59.444Z,6.00
2017-12-31T17:48:30.801Z,5.75
2017-12-31T17:51:02.422Z,6.25
2017-12-31T17:53:33.861Z,6.00
2017-12-31T17:56:05.266Z,7.00
2017-12-31T17:58:35.824Z,5.75
2017-12-31T18:01:06.979Z,10.25
2017-12-31T18:03:40.959Z,6.00
2017-12-31T18:06:12.041Z,6.75
2017-12-31T18:08:43.249Z,5.00
2017-12-31T18:11:14.870Z,6.00
2017-12-31T18:13:45.637Z,7.00
2017-12-31T18:16:16.406Z,6.50
2017-12-31T18:18:51.073Z,9.50
2017-12-31T18:21:23.044Z,6.00
2017-12-31T18:23:53.556Z,6.50
2017-12-31T18:26:25.446Z,9.00
2017-12-31T18:28:57.820Z,8.25
2017-12-31T18:31:53.824Z,6.50
2017-12-31T18:34:38.012Z,5.75
2017-12-31T18:37:28.024Z,6.00
2017-12-31T18:40:08.093Z,5.25
2017-12-31T18:42:42.511Z,6.00
2017-12-31T18:45:20.166Z,6.00
2017-12-31T18:47:56.134Z,6.00
2017-12-31T18:50:27.055Z,9.00
2017-12-31T18:52:57.757Z,7.75
2017-12-31T18:55:28.703Z,5.00
2017-12-31T18:57:59.686Z,5.00
2017-12-31T19:00:37.336Z,5.00
2017-12-31T19:03:09.378Z,5.00
2017-12-31T19:05:40.298Z,6.00
2017-12-31T19:08:11.203Z,6.75
2017-12-31T19:10:42.633Z,6.00
2017-12-31T19:13:13.625Z,3.00
2017-12-31T19:15:47.095Z,5.00
2017-12-31T19:18:19.161Z,4.50
2017-12-31T19:20:50.794Z,5.00
2017-12-31T19:23:21.860Z,3.00
2017-12-31T19:25:55.167Z,3.25
2017-12-31T19:28:26.393Z,5.00
2017-12-31T19:30:58.734Z,5.00
2017-12-31T19:33:29.614Z,6.00
2017-12-31T19:36:01.169Z,5.25
2017-12-31T19:38:33.352Z,6.75
2017-12-31T19:41:04.525Z,5.00
2017-12-31T19:43:36.131Z,5.75
2017-12-31T19:46:07.185Z,3.75
2017-12-31T19:48:38.563Z,2.50
2017-12-31T19:51:10.239Z,19.00
2017-12-31T19:53:41.114Z,2.00
2017-12-31T19:56:12.963Z,4.00
2017-12-31T19:58:45.028Z,1.25
2017-12-31T20:01:15.718Z,12.50
2017-12-31T20:03:47.754Z,8.75
2017-12-31T20:08:56.464Z,5.50
2017-12-31T20:11:27.174Z,9.75
2017-12-31T20:13:59.089Z,8.75
2017-12-31T20:16:30.566Z,8.50
2017-12-31T20:19:01.162Z,10.50
2017-12-31T20:21:34.078Z,8.25
2017-12-31T20:24:05.135Z,10.00
2017-12-31T20:26:35.896Z,9.75
2017-12-31T20:29:06.271Z,15.50
2017-12-31T20:31:37.301Z,16.50
2017-12-31T20:34:10.446Z,13.75
2017-12-31T20:36:41.005Z,7.75
2017-12-31T20:39:11.512Z,7.00
2017-12-31T20:41:43.967Z,6.50
2017-12-31T20:44:16.907Z,5.50
2017-12-31T20:46:49.784Z,6.00
2017-12-31T20:49:24.433Z,11.50
2017-12-31T20:52:00.536Z,7.75
2017-12-31T20:54:36.880Z,10.75
2017-12-31T20:57:09.740Z,9.50
2017-12-31T20:59:40.993Z,7.25
2017-12-31T21:02:13.484Z,7.75
2017-12-31T21:04:46.493Z,11.00
2017-12-31T21:07:20.168Z,11.00
2017-12-31T21:09:58.519Z,8.25
2017-12-31T21:12:32.925Z,6.00
2017-12-31T21:15:07.000Z,8.00
2017-12-31T21:17:38.480Z,5.00
2017-12-31T21:20:08.968Z,5.00
2017-12-31T21:25:21.979Z,6.75
2017-12-31T21:27:52.865Z,8.00
2017-12-31T21:30:24.263Z,37.00
2017-12-31T21:32:55.054Z,10.75
2017-12-31T21:35:26.810Z,8.00
2017-12-31T21:37:57.661Z,15.75
2017-12-31T21:40:29.387Z,8.50
2017-12-31T21:42:59.757Z,7.00
2017-12-31T21:48:06.478Z,7.75
2017-12-31T21:50:37.033Z,18.00
2017-12-31T21:53:07.498Z,20.25
2017-12-31T21:55:39.716Z,15.00
2017-12-31T21:58:10.866Z,17.25
2017-12-31T22:00:43.374Z,13.50
2017-12-31T22:03:14.844Z,10.50
2017-12-31T22:05:45.880Z,7.75
2017-12-31T22:08:17.198Z,10.50
2017-12-31T22:10:47.962Z,16.50
2017-12-31T22:13:18.491Z,11.75
2017-12-31T22:15:50.394Z,12.75
2017-12-31T22:18:22.349Z,13.25
2017-12-31T22:20:53.452Z,12.00
2017-12-31T22:23:25.295Z,22.25
2017-12-31T22:25:55.983Z,16.25
2017-12-31T22:28:26.938Z,10.75
2017-12-31T22:30:57.442Z,12.75
2017-12-31T22:33:29.298Z,8.00
2017-12-31T22:36:00.219Z,4.75
2017-12-31T22:38:31.429Z,2.50
2017-12-31T22:41:02.137Z,4.00
2017-12-31T22:43:33.615Z,4.00
2017-12-31T22:46:05.477Z,7.25
2017-12-31T22:48:36.951Z,5.00
2017-12-31T22:51:07.319Z,2.75
2017-12-31T22:53:38.815Z,8.75
2017-12-31T22:56:09.871Z,10.75
2017-12-31T22:58:40.566Z,59.75
2017-12-31T23:01:13.451Z,120.50
2017-12-31T23:04:01.135Z,225.75
2017-12-31T23:06:33.401Z,223.75
2017-12-31T23:09:04.545Z,149.50
2017-12-31T23:11:43.687Z,204.75
2017-12-31T23:14:24.377Z,270.50
2017-12-31T23:17:00.691Z,207.25
2017-12-31T23:19:33.725Z,194.25
2017-12-31T23:22:04.873Z,242.75
2017-12-31T23:27:25.742Z,152.75
2017-12-31T23:29:56.925Z,129.00
2017-12-31T23:32:27.894Z,177.00
2017-12-31T23:34:59.436Z,141.75
2017-12-31T23:37:40.422Z,135.50
2017-12-31T23:40:12.860Z,90.25
2017-12-31T23:42:46.037Z,88.25
2017-12-31T23:45:18.047Z,76.50
2017-12-31T23:47:48.665Z,74.25
2017-12-31T23:50:20.987Z,67.50
2017-12-31T23:52:52.412Z,63.75
2017-12-31T23:55:24.429Z,45.50
2017-12-31T23:57:56.443Z,25.00
